sensor_id;sensor_type;location;lat;lon;timestamp;temperature;humidity
13091;DHT22;6611;52.604;13.438;2022-11-30T00:02:17;4.43;86.45
13091;DHT22;6611;52.604;13.438;2022-11-30T00:07:20;4.35;86.39
13091;DHT22;6611;52.604;13.438;2022-11-30T00:12:22;4.31;86.77
13091;DHT22;6611;52.604;13.438;2022-11-30T00:17:24;4.38;86.66
13091;DHT22;6611;52.604;13.438;2022-11-30T00:22:28;4.28;86.59
13091;DHT22;6611;52.604;13.438;2022-11-30T00:27:30;4.32;86.72
13091;DHT22;6611;52.604;13.438;2022-11-30T00:32:32;4.29;86.74
13091;DHT22;6611;52.604;13.438;2022-11-30T00:37:35;4.23;86.61
13091;DHT22;6611;52.604;13.438;2022-11-30T00:42:37;4.36;86.19
13091;DHT22;6611;52.604;13.438;2022-11-30T00:47:39;4.31;86.41
13091;DHT22;6611;52.604;13.438;2022-11-30T00:52:42;4.33;86.11
13091;DHT22;6611;52.604;13.438;2022-11-30T00:57:43;4.22;86.36
13091;DHT22;6611;52.604;13.438;2022-11-30T01:02:45;4.19;86.91
13091;DHT22;6611;52.604;13.438;2022-11-30T01:07:48;4.23;86.59
13091;DHT22;6611;52.604;13.438;2022-11-30T01:12:50;4.19;86.82
13091;DHT22;6611;52.604;13.438;2022-11-30T01:17:51;4.29;86.49
13091;DHT22;6611;52.604;13.438;2022-11-30T01:22:55;4.28;86.39
13091;DHT22;6611;52.604;13.438;2022-11-30T01:27:56;4.16;86.71
13091;DHT22;6611;52.604;13.438;2022-11-30T01:33:01;4.19;86.71
13091;DHT22;6611;52.604;13.438;2022-11-30T01:38:04;4.19;86.49
13091;DHT22;6611;52.604;13.438;2022-11-30T01:43:08;4.06;86.82
13091;DHT22;6611;52.604;13.438;2022-11-30T01:48:10;4.14;86.63
13091;DHT22;6611;52.604;13.438;2022-11-30T01:53:13;4.14;86.62
13091;DHT22;6611;52.604;13.438;2022-11-30T01:58:18;4.12;86.86
13091;DHT22;6611;52.604;13.438;2022-11-30T02:03:29;4.11;86.63
13091;DHT22;6611;52.604;13.438;2022-11-30T02:08:34;4.19;86.55
13091;DHT22;6611;52.604;13.438;2022-11-30T02:13:43;4.09;86.40
13091;DHT22;6611;52.604;13.438;2022-11-30T02:18:57;4.15;86.36
13091;DHT22;6611;52.604;13.438;2022-11-30T02:29:46;4.18;86.65
13091;DHT22;6611;52.604;13.438;2022-11-30T02:34:50;4.14;86.25
13091;DHT22;6611;52.604;13.438;2022-11-30T02:39:53;4.04;86.66
13091;DHT22;6611;52.604;13.438;2022-11-30T02:44:56;4.05;86.54
13091;DHT22;6611;52.604;13.438;2022-11-30T02:50:00;3.91;86.92
13091;DHT22;6611;52.604;13.438;2022-11-30T02:55:04;3.97;86.94
13091;DHT22;6611;52.604;13.438;2022-11-30T03:00:10;4.12;86.47
13091;DHT22;6611;52.604;13.438;2022-11-30T03:05:12;4.19;85.89
13091;DHT22;6611;52.604;13.438;2022-11-30T03:10:14;4.12;86.28
13091;DHT22;6611;52.604;13.438;2022-11-30T03:15:17;3.97;86.62
13091;DHT22;6611;52.604;13.438;2022-11-30T03:20:19;4.09;86.50
13091;DHT22;6611;52.604;13.438;2022-11-30T03:25:20;3.94;86.79
13091;DHT22;6611;52.604;13.438;2022-11-30T03:30:23;3.95;87.08
13091;DHT22;6611;52.604;13.438;2022-11-30T03:35:25;3.97;86.86
13091;DHT22;6611;52.604;13.438;2022-11-30T03:40:27;3.87;87.22
13091;DHT22;6611;52.604;13.438;2022-11-30T03:45:30;3.94;87.08
13091;DHT22;6611;52.604;13.438;2022-11-30T03:50:31;3.80;87.50
13091;DHT22;6611;52.604;13.438;2022-11-30T03:55:33;3.90;87.15
13091;DHT22;6611;52.604;13.438;2022-11-30T04:00:36;3.88;87.08
13091;DHT22;6611;52.604;13.438;2022-11-30T04:05:38;3.84;87.35
13091;DHT22;6611;52.604;13.438;2022-11-30T04:10:40;3.77;87.54
13091;DHT22;6611;52.604;13.438;2022-11-30T04:15:44;3.81;87.32
13091;DHT22;6611;52.604;13.438;2022-11-30T04:20:49;3.81;87.37
13091;DHT22;6611;52.604;13.438;2022-11-30T04:25:51;3.88;87.19
13091;DHT22;6611;52.604;13.438;2022-11-30T04:30:54;3.88;87.06
13091;DHT22;6611;52.604;13.438;2022-11-30T04:35:58;3.86;86.84
13091;DHT22;6611;52.604;13.438;2022-11-30T04:41:05;3.88;86.75
13091;DHT22;6611;52.604;13.438;2022-11-30T04:46:09;3.83;86.99
13091;DHT22;6611;52.604;13.438;2022-11-30T04:51:11;3.74;87.09
13091;DHT22;6611;52.604;13.438;2022-11-30T04:56:12;3.71;86.91
13091;DHT22;6611;52.604;13.438;2022-11-30T05:01:15;3.67;87.34
13091;DHT22;6611;52.604;13.438;2022-11-30T05:06:17;3.67;87.22
13091;DHT22;6611;52.604;13.438;2022-11-30T05:11:19;3.62;87.20
13091;DHT22;6611;52.604;13.438;2022-11-30T05:16:22;3.66;87.42
13091;DHT22;6611;52.604;13.438;2022-11-30T05:21:25;3.63;87.41
13091;DHT22;6611;52.604;13.438;2022-11-30T05:26:26;3.60;87.46
13091;DHT22;6611;52.604;13.438;2022-11-30T05:31:29;3.64;87.34
13091;DHT22;6611;52.604;13.438;2022-11-30T05:36:31;3.64;87.32
13091;DHT22;6611;52.604;13.438;2022-11-30T05:41:33;3.60;87.66
13091;DHT22;6611;52.604;13.438;2022-11-30T05:46:36;3.70;87.19
13091;DHT22;6611;52.604;13.438;2022-11-30T05:51:38;3.63;87.47
13091;DHT22;6611;52.604;13.438;2022-11-30T05:56:40;3.71;87.10
13091;DHT22;6611;52.604;13.438;2022-11-30T06:01:43;3.71;87.16
13091;DHT22;6611;52.604;13.438;2022-11-30T06:06:45;3.66;87.05
13091;DHT22;6611;52.604;13.438;2022-11-30T06:11:47;3.77;86.66
13091;DHT22;6611;52.604;13.438;2022-11-30T06:16:50;3.73;86.82
13091;DHT22;6611;52.604;13.438;2022-11-30T06:21:52;3.71;86.48
13091;DHT22;6611;52.604;13.438;2022-11-30T06:26:54;3.67;87.01
13091;DHT22;6611;52.604;13.438;2022-11-30T06:31:57;3.66;87.10
13091;DHT22;6611;52.604;13.438;2022-11-30T06:36:58;3.63;87.06
13091;DHT22;6611;52.604;13.438;2022-11-30T06:42:00;3.64;87.03
13091;DHT22;6611;52.604;13.438;2022-11-30T06:47:03;3.71;86.65
13091;DHT22;6611;52.604;13.438;2022-11-30T06:52:05;3.81;86.21
13091;DHT22;6611;52.604;13.438;2022-11-30T06:57:06;3.78;86.46
13091;DHT22;6611;52.604;13.438;2022-11-30T07:02:10;3.70;86.92
13091;DHT22;6611;52.604;13.438;2022-11-30T07:07:12;3.73;86.57
13091;DHT22;6611;52.604;13.438;2022-11-30T07:12:14;3.71;86.97
13091;DHT22;6611;52.604;13.438;2022-11-30T07:17:18;3.76;86.54
13091;DHT22;6611;52.604;13.438;2022-11-30T07:22:20;3.70;86.76
13091;DHT22;6611;52.604;13.438;2022-11-30T07:27:22;3.76;86.29
13091;DHT22;6611;52.604;13.438;2022-11-30T07:32:25;3.64;86.79
13091;DHT22;6611;52.604;13.438;2022-11-30T07:37:26;3.66;86.89
13091;DHT22;6611;52.604;13.438;2022-11-30T07:42:28;3.71;86.45
13091;DHT22;6611;52.604;13.438;2022-11-30T07:47:31;3.73;86.49
13091;DHT22;6611;52.604;13.438;2022-11-30T07:52:33;3.63;86.98
13091;DHT22;6611;52.604;13.438;2022-11-30T07:57:34;3.59;87.18
13091;DHT22;6611;52.604;13.438;2022-11-30T08:02:37;3.60;87.38
13091;DHT22;6611;52.604;13.438;2022-11-30T08:07:39;3.77;87.04
13091;DHT22;6611;52.604;13.438;2022-11-30T08:12:41;3.91;86.07
13091;DHT22;6611;52.604;13.438;2022-11-30T08:17:44;3.91;85.50
13091;DHT22;6611;52.604;13.438;2022-11-30T08:22:45;3.88;86.19
13091;DHT22;6611;52.604;13.438;2022-11-30T08:27:48;3.91;86.14
13091;DHT22;6611;52.604;13.438;2022-11-30T08:32:51;3.87;86.00
13091;DHT22;6611;52.604;13.438;2022-11-30T08:37:53;4.02;85.64
13091;DHT22;6611;52.604;13.438;2022-11-30T08:42:55;3.94;85.70
13091;DHT22;6611;52.604;13.438;2022-11-30T08:48:00;3.95;85.89
13091;DHT22;6611;52.604;13.438;2022-11-30T08:53:02;3.94;85.80
13091;DHT22;6611;52.604;13.438;2022-11-30T08:58:03;4.15;85.37
13091;DHT22;6611;52.604;13.438;2022-11-30T09:03:06;4.06;85.02
13091;DHT22;6611;52.604;13.438;2022-11-30T09:08:08;4.19;84.76
13091;DHT22;6611;52.604;13.438;2022-11-30T09:13:10;4.18;85.12
13091;DHT22;6611;52.604;13.438;2022-11-30T09:18:13;4.31;84.72
13091;DHT22;6611;52.604;13.438;2022-11-30T09:23:15;4.31;84.49
13091;DHT22;6611;52.604;13.438;2022-11-30T09:28:16;4.38;84.34
13091;DHT22;6611;52.604;13.438;2022-11-30T09:33:19;4.28;84.51
13091;DHT22;6611;52.604;13.438;2022-11-30T09:38:22;4.38;84.04
13091;DHT22;6611;52.604;13.438;2022-11-30T09:43:31;4.53;83.82
13091;DHT22;6611;52.604;13.438;2022-11-30T09:48:48;4.66;83.82
13091;DHT22;6611;52.604;13.438;2022-11-30T09:53:54;4.68;83.66
13091;DHT22;6611;52.604;13.438;2022-11-30T09:59:02;4.68;83.76
13091;DHT22;6611;52.604;13.438;2022-11-30T10:04:11;4.71;83.35
13091;DHT22;6611;52.604;13.438;2022-11-30T10:09:30;4.78;83.07
13091;DHT22;6611;52.604;13.438;2022-11-30T10:20:36;4.73;82.79
13091;DHT22;6611;52.604;13.438;2022-11-30T10:25:48;4.87;82.69
13091;DHT22;6611;52.604;13.438;2022-11-30T10:30:53;4.94;82.21
13091;DHT22;6611;52.604;13.438;2022-11-30T10:35:59;4.95;82.47
13091;DHT22;6611;52.604;13.438;2022-11-30T10:41:09;5.07;82.37
13091;DHT22;6611;52.604;13.438;2022-11-30T10:46:17;5.26;81.86
13091;DHT22;6611;52.604;13.438;2022-11-30T10:51:23;5.22;80.86
13091;DHT22;6611;52.604;13.438;2022-11-30T10:56:25;5.09;80.85
13091;DHT22;6611;52.604;13.438;2022-11-30T11:01:32;5.07;81.45
13091;DHT22;6611;52.604;13.438;2022-11-30T11:06:40;5.09;81.38
13091;DHT22;6611;52.604;13.438;2022-11-30T11:11:43;5.07;81.34
13091;DHT22;6611;52.604;13.438;2022-11-30T11:16:50;5.13;81.76
13091;DHT22;6611;52.604;13.438;2022-11-30T11:21:54;5.16;81.78
13091;DHT22;6611;52.604;13.438;2022-11-30T11:26:56;5.36;81.83
13091;DHT22;6611;52.604;13.438;2022-11-30T11:32:19;5.26;81.41
13091;DHT22;6611;52.604;13.438;2022-11-30T11:37:24;5.40;81.40
13091;DHT22;6611;52.604;13.438;2022-11-30T11:42:30;5.44;80.41
13091;DHT22;6611;52.604;13.438;2022-11-30T11:47:37;5.30;80.89
13091;DHT22;6611;52.604;13.438;2022-11-30T11:52:41;5.40;81.21
13091;DHT22;6611;52.604;13.438;2022-11-30T11:57:45;5.16;81.03
13091;DHT22;6611;52.604;13.438;2022-11-30T12:02:53;5.07;81.48
13091;DHT22;6611;52.604;13.438;2022-11-30T12:08:12;5.05;81.84
13091;DHT22;6611;52.604;13.438;2022-11-30T12:13:17;5.09;82.13
13091;DHT22;6611;52.604;13.438;2022-11-30T12:18:24;5.11;82.02
13091;DHT22;6611;52.604;13.438;2022-11-30T12:23:51;4.94;81.59
13091;DHT22;6611;52.604;13.438;2022-11-30T12:29:12;5.04;81.78
13091;DHT22;6611;52.604;13.438;2022-11-30T12:34:21;4.83;81.94
13091;DHT22;6611;52.604;13.438;2022-11-30T12:39:32;4.67;81.81
13091;DHT22;6611;52.604;13.438;2022-11-30T12:44:46;4.68;82.85
13091;DHT22;6611;52.604;13.438;2022-11-30T12:50:02;4.60;83.80
13091;DHT22;6611;52.604;13.438;2022-11-30T12:55:19;4.56;83.33
13091;DHT22;6611;52.604;13.438;2022-11-30T13:00:24;4.67;83.19
13091;DHT22;6611;52.604;13.438;2022-11-30T13:05:30;4.71;82.95
13091;DHT22;6611;52.604;13.438;2022-11-30T13:10:41;4.67;82.97
13091;DHT22;6611;52.604;13.438;2022-11-30T13:15:46;4.56;83.55
13091;DHT22;6611;52.604;13.438;2022-11-30T13:20:54;4.49;82.89
13091;DHT22;6611;52.604;13.438;2022-11-30T13:26:04;4.28;83.83
13091;DHT22;6611;52.604;13.438;2022-11-30T13:31:10;4.18;83.74
13091;DHT22;6611;52.604;13.438;2022-11-30T13:36:34;3.98;83.53
13091;DHT22;6611;52.604;13.438;2022-11-30T13:41:39;3.77;84.09
13091;DHT22;6611;52.604;13.438;2022-11-30T13:46:47;3.70;84.65
13091;DHT22;6611;52.604;13.438;2022-11-30T13:51:49;3.63;84.77
13091;DHT22;6611;52.604;13.438;2022-11-30T13:56:52;3.49;84.33
13091;DHT22;6611;52.604;13.438;2022-11-30T14:07:42;2.91;85.86
13091;DHT22;6611;52.604;13.438;2022-11-30T14:12:54;3.00;85.59
13091;DHT22;6611;52.604;13.438;2022-11-30T14:17:58;2.84;85.69
13091;DHT22;6611;52.604;13.438;2022-11-30T14:23:03;2.72;86.35
13091;DHT22;6611;52.604;13.438;2022-11-30T14:28:09;2.35;86.86
13091;DHT22;6611;52.604;13.438;2022-11-30T14:33:18;2.29;87.11
13091;DHT22;6611;52.604;13.438;2022-11-30T14:38:24;1.99;87.66
13091;DHT22;6611;52.604;13.438;2022-11-30T14:43:27;1.94;88.16
13091;DHT22;6611;52.604;13.438;2022-11-30T14:48:29;2.00;88.05
13091;DHT22;6611;52.604;13.438;2022-11-30T14:53:37;2.07;87.96
13091;DHT22;6611;52.604;13.438;2022-11-30T14:58:49;1.90;88.04
13091;DHT22;6611;52.604;13.438;2022-11-30T15:03:54;1.84;88.47
13091;DHT22;6611;52.604;13.438;2022-11-30T15:08:58;1.77;88.62
13091;DHT22;6611;52.604;13.438;2022-11-30T15:14:08;1.69;88.76
13091;DHT22;6611;52.604;13.438;2022-11-30T15:19:19;1.62;88.89
13091;DHT22;6611;52.604;13.438;2022-11-30T15:24:21;1.63;89.18
13091;DHT22;6611;52.604;13.438;2022-11-30T15:29:28;1.70;88.68
13091;DHT22;6611;52.604;13.438;2022-11-30T15:34:35;1.77;88.99
13091;DHT22;6611;52.604;13.438;2022-11-30T15:39:38;1.90;88.50
13091;DHT22;6611;52.604;13.438;2022-11-30T15:44:45;1.94;88.20
13091;DHT22;6611;52.604;13.438;2022-11-30T15:49:51;1.92;88.31
13091;DHT22;6611;52.604;13.438;2022-11-30T15:54:54;1.90;87.97
13091;DHT22;6611;52.604;13.438;2022-11-30T16:00:05;1.90;88.09
13091;DHT22;6611;52.604;13.438;2022-11-30T16:05:24;1.84;88.35
13091;DHT22;6611;52.604;13.438;2022-11-30T16:10:29;1.76;88.70
13091;DHT22;6611;52.604;13.438;2022-11-30T16:15:35;1.83;88.25
13091;DHT22;6611;52.604;13.438;2022-11-30T16:20:37;1.82;88.78
13091;DHT22;6611;52.604;13.438;2022-11-30T16:25:40;1.90;88.44
13091;DHT22;6611;52.604;13.438;2022-11-30T16:30:44;1.93;88.52
13091;DHT22;6611;52.604;13.438;2022-11-30T16:35:52;1.99;88.35
13091;DHT22;6611;52.604;13.438;2022-11-30T16:41:08;1.92;88.64
13091;DHT22;6611;52.604;13.438;2022-11-30T16:46:13;2.01;88.75
13091;DHT22;6611;52.604;13.438;2022-11-30T16:51:17;2.01;88.54
13091;DHT22;6611;52.604;13.438;2022-11-30T16:56:19;1.92;88.58
13091;DHT22;6611;52.604;13.438;2022-11-30T17:01:26;1.75;89.54
13091;DHT22;6611;52.604;13.438;2022-11-30T17:06:29;1.84;89.46
13091;DHT22;6611;52.604;13.438;2022-11-30T17:11:32;1.90;89.46
13091;DHT22;6611;52.604;13.438;2022-11-30T17:16:36;1.97;89.21
13091;DHT22;6611;52.604;13.438;2022-11-30T17:21:38;1.82;89.51
13091;DHT22;6611;52.604;13.438;2022-11-30T17:26:41;1.83;89.95
13091;DHT22;6611;52.604;13.438;2022-11-30T17:31:44;1.90;89.90
13091;DHT22;6611;52.604;13.438;2022-11-30T17:36:46;2.00;89.49
13091;DHT22;6611;52.604;13.438;2022-11-30T17:41:50;1.99;89.63
13091;DHT22;6611;52.604;13.438;2022-11-30T17:46:53;1.99;89.83
13091;DHT22;6611;52.604;13.438;2022-11-30T17:51:55;1.94;90.13
13091;DHT22;6611;52.604;13.438;2022-11-30T17:56:56;1.94;90.11
13091;DHT22;6611;52.604;13.438;2022-11-30T18:02:00;2.01;89.85
13091;DHT22;6611;52.604;13.438;2022-11-30T18:07:01;1.99;89.77
13091;DHT22;6611;52.604;13.438;2022-11-30T18:12:04;1.93;90.11
13091;DHT22;6611;52.604;13.438;2022-11-30T18:17:07;1.97;89.90
13091;DHT22;6611;52.604;13.438;2022-11-30T18:22:09;1.93;89.75
13091;DHT22;6611;52.604;13.438;2022-11-30T18:27:10;1.87;89.80
13091;DHT22;6611;52.604;13.438;2022-11-30T18:32:13;1.94;89.91
13091;DHT22;6611;52.604;13.438;2022-11-30T18:37:15;1.96;89.61
13091;DHT22;6611;52.604;13.438;2022-11-30T18:42:17;1.92;89.34
13091;DHT22;6611;52.604;13.438;2022-11-30T18:47:21;2.01;89.23
13091;DHT22;6611;52.604;13.438;2022-11-30T18:52:22;2.00;88.89
13091;DHT22;6611;52.604;13.438;2022-11-30T18:57:24;1.99;89.18
13091;DHT22;6611;52.604;13.438;2022-11-30T19:02:27;2.15;88.45
13091;DHT22;6611;52.604;13.438;2022-11-30T19:07:29;2.00;87.98
13091;DHT22;6611;52.604;13.438;2022-11-30T19:12:31;2.01;88.42
13091;DHT22;6611;52.604;13.438;2022-11-30T19:17:35;1.89;88.38
13091;DHT22;6611;52.604;13.438;2022-11-30T19:22:37;1.93;88.52
13091;DHT22;6611;52.604;13.438;2022-11-30T19:27:38;1.90;88.54
13091;DHT22;6611;52.604;13.438;2022-11-30T19:32:41;1.97;87.87
13091;DHT22;6611;52.604;13.438;2022-11-30T19:37:43;2.04;87.58
13091;DHT22;6611;52.604;13.438;2022-11-30T19:42:45;1.96;87.85
13091;DHT22;6611;52.604;13.438;2022-11-30T19:47:48;1.87;88.83
13091;DHT22;6611;52.604;13.438;2022-11-30T19:52:49;1.94;87.81
13091;DHT22;6611;52.604;13.438;2022-11-30T19:57:51;1.90;87.75
13091;DHT22;6611;52.604;13.438;2022-11-30T20:02:54;1.75;88.11
13091;DHT22;6611;52.604;13.438;2022-11-30T20:07:56;1.83;87.98
13091;DHT22;6611;52.604;13.438;2022-11-30T20:12:57;1.73;88.07
13091;DHT22;6611;52.604;13.438;2022-11-30T20:18:01;1.76;88.36
13091;DHT22;6611;52.604;13.438;2022-11-30T20:23:02;1.75;88.27
13091;DHT22;6611;52.604;13.438;2022-11-30T20:28:04;1.83;88.04
13091;DHT22;6611;52.604;13.438;2022-11-30T20:33:07;1.87;87.99
13091;DHT22;6611;52.604;13.438;2022-11-30T20:38:09;2.00;87.58
13091;DHT22;6611;52.604;13.438;2022-11-30T20:43:10;2.04;87.41
13091;DHT22;6611;52.604;13.438;2022-11-30T20:48:13;2.11;87.10
13091;DHT22;6611;52.604;13.438;2022-11-30T20:53:15;1.89;87.33
13091;DHT22;6611;52.604;13.438;2022-11-30T20:58:17;1.80;87.70
13091;DHT22;6611;52.604;13.438;2022-11-30T21:03:20;1.62;88.40
13091;DHT22;6611;52.604;13.438;2022-11-30T21:08:21;1.60;88.60
13091;DHT22;6611;52.604;13.438;2022-11-30T21:13:23;1.72;88.50
13091;DHT22;6611;52.604;13.438;2022-11-30T21:18:26;1.69;88.45
13091;DHT22;6611;52.604;13.438;2022-11-30T21:23:28;1.73;88.32
13091;DHT22;6611;52.604;13.438;2022-11-30T21:28:29;1.70;88.16
13091;DHT22;6611;52.604;13.438;2022-11-30T21:33:32;1.69;88.28
13091;DHT22;6611;52.604;13.438;2022-11-30T21:38:34;1.70;88.42
13091;DHT22;6611;52.604;13.438;2022-11-30T21:43:36;1.77;88.00
13091;DHT22;6611;52.604;13.438;2022-11-30T21:48:41;1.84;87.45
13091;DHT22;6611;52.604;13.438;2022-11-30T21:53:44;1.66;87.92
13091;DHT22;6611;52.604;13.438;2022-11-30T21:58:48;1.49;88.59
13091;DHT22;6611;52.604;13.438;2022-11-30T22:03:51;1.48;88.77
13091;DHT22;6611;52.604;13.438;2022-11-30T22:08:55;1.59;88.45
13091;DHT22;6611;52.604;13.438;2022-11-30T22:13:57;1.49;88.74
13091;DHT22;6611;52.604;13.438;2022-11-30T22:19:00;1.65;88.44
13091;DHT22;6611;52.604;13.438;2022-11-30T22:24:03;1.83;87.44
13091;DHT22;6611;52.604;13.438;2022-11-30T22:29:08;1.72;87.74
13091;DHT22;6611;52.604;13.438;2022-11-30T22:34:13;1.76;87.91
13091;DHT22;6611;52.604;13.438;2022-11-30T22:39:16;1.83;87.34
13091;DHT22;6611;52.604;13.438;2022-11-30T22:44:17;1.99;86.65
13091;DHT22;6611;52.604;13.438;2022-11-30T22:49:20;1.77;86.95
13091;DHT22;6611;52.604;13.438;2022-11-30T22:54:22;1.59;87.66
13091;DHT22;6611;52.604;13.438;2022-11-30T22:59:24;1.51;87.89
13091;DHT22;6611;52.604;13.438;2022-11-30T23:04:27;1.56;87.65
13091;DHT22;6611;52.604;13.438;2022-11-30T23:09:29;1.42;88.29
13091;DHT22;6611;52.604;13.438;2022-11-30T23:14:31;1.41;88.39
13091;DHT22;6611;52.604;13.438;2022-11-30T23:19:35;1.34;88.41
13091;DHT22;6611;52.604;13.438;2022-11-30T23:24:37;1.47;88.46
13091;DHT22;6611;52.604;13.438;2022-11-30T23:29:38;1.56;87.51
13091;DHT22;6611;52.604;13.438;2022-11-30T23:34:41;1.41;87.65
13091;DHT22;6611;52.604;13.438;2022-11-30T23:39:43;1.45;87.67
13091;DHT22;6611;52.604;13.438;2022-11-30T23:44:44;1.44;87.65
13091;DHT22;6611;52.604;13.438;2022-11-30T23:49:48;1.48;87.72
13091;DHT22;6611;52.604;13.438;2022-11-30T23:54:49;1.38;88.07
13091;DHT22;6611;52.604;13.438;2022-11-30T23:59:51;1.48;87.88
